sensor_id;sensor_type;location;lat;lon;timestamp;P1;durP1;ratioP1;P2;durP2;ratioP2
3801;SDS011;1916;51.798;12.246;2022-12-29T00:00:19;3.03;;;2.67;;
3801;SDS011;1916;51.798;12.246;2022-12-29T00:02:21;2.80;;;2.43;;
3801;SDS011;1916;51.798;12.246;2022-12-29T00:04:23;5.20;;;2.30;;
3801;SDS011;1916;51.798;12.246;2022-12-29T00:06:26;3.20;;;2.63;;
3801;SDS011;1916;51.798;12.246;2022-12-29T00:08:28;3.10;;;2.80;;
3801;SDS011;1916;51.798;12.246;2022-12-29T00:10:42;4.20;;;2.40;;
3801;SDS011;1916;51.798;12.246;2022-12-29T00:12:44;7.03;;;2.17;;
3801;SDS011;1916;51.798;12.246;2022-12-29T00:15:06;2.73;;;2.20;;
3801;SDS011;1916;51.798;12.246;2022-12-29T00:17:27;3.23;;;2.40;;
3801;SDS011;1916;51.798;12.246;2022-12-29T00:19:29;4.80;;;2.27;;
3801;SDS011;1916;51.798;12.246;2022-12-29T00:21:49;2.40;;;2.20;;
3801;SDS011;1916;51.798;12.246;2022-12-29T00:24:13;3.10;;;2.40;;
3801;SDS011;1916;51.798;12.246;2022-12-29T00:26:28;2.23;;;2.00;;
3801;SDS011;1916;51.798;12.246;2022-12-29T00:28:50;2.80;;;2.60;;
3801;SDS011;1916;51.798;12.246;2022-12-29T00:31:11;2.53;;;2.33;;
3801;SDS011;1916;51.798;12.246;2022-12-29T00:33:33;4.53;;;2.53;;
3801;SDS011;1916;51.798;12.246;2022-12-29T00:35:55;3.43;;;2.40;;
3801;SDS011;1916;51.798;12.246;2022-12-29T00:38:04;3.13;;;2.47;;
3801;SDS011;1916;51.798;12.246;2022-12-29T00:40:25;3.93;;;2.20;;
3801;SDS011;1916;51.798;12.246;2022-12-29T00:42:46;2.07;;;1.97;;
3801;SDS011;1916;51.798;12.246;2022-12-29T00:45:07;4.03;;;2.60;;
3801;SDS011;1916;51.798;12.246;2022-12-29T00:47:09;2.57;;;2.37;;
3801;SDS011;1916;51.798;12.246;2022-12-29T00:49:11;2.57;;;2.37;;
3801;SDS011;1916;51.798;12.246;2022-12-29T00:51:35;3.40;;;2.47;;
3801;SDS011;1916;51.798;12.246;2022-12-29T00:53:37;2.97;;;2.63;;
3801;SDS011;1916;51.798;12.246;2022-12-29T00:55:39;3.30;;;2.80;;
3801;SDS011;1916;51.798;12.246;2022-12-29T00:57:41;4.77;;;2.10;;
3801;SDS011;1916;51.798;12.246;2022-12-29T00:59:43;2.50;;;2.30;;
3801;SDS011;1916;51.798;12.246;2022-12-29T01:01:45;4.67;;;2.50;;
3801;SDS011;1916;51.798;12.246;2022-12-29T01:03:48;2.60;;;2.20;;
3801;SDS011;1916;51.798;12.246;2022-12-29T01:05:50;4.20;;;2.37;;
3801;SDS011;1916;51.798;12.246;2022-12-29T01:07:52;2.50;;;2.30;;
3801;SDS011;1916;51.798;12.246;2022-12-29T01:09:54;2.50;;;2.30;;
3801;SDS011;1916;51.798;12.246;2022-12-29T01:12:11;2.63;;;2.43;;
3801;SDS011;1916;51.798;12.246;2022-12-29T01:14:15;2.40;;;2.20;;
3801;SDS011;1916;51.798;12.246;2022-12-29T01:16:18;8.53;;;2.70;;
3801;SDS011;1916;51.798;12.246;2022-12-29T01:18:21;3.00;;;2.37;;
3801;SDS011;1916;51.798;12.246;2022-12-29T01:20:23;4.03;;;2.10;;
3801;SDS011;1916;51.798;12.246;2022-12-29T01:22:25;3.43;;;2.50;;
3801;SDS011;1916;51.798;12.246;2022-12-29T01:24:29;2.33;;;2.13;;
3801;SDS011;1916;51.798;12.246;2022-12-29T01:26:31;2.83;;;2.00;;
3801;SDS011;1916;51.798;12.246;2022-12-29T01:28:33;3.60;;;2.33;;
3801;SDS011;1916;51.798;12.246;2022-12-29T01:30:36;2.37;;;2.17;;
3801;SDS011;1916;51.798;12.246;2022-12-29T01:32:38;2.10;;;1.90;;
3801;SDS011;1916;51.798;12.246;2022-12-29T01:34:40;2.40;;;2.20;;
3801;SDS011;1916;51.798;12.246;2022-12-29T01:36:42;3.73;;;2.77;;
3801;SDS011;1916;51.798;12.246;2022-12-29T01:38:44;2.70;;;2.10;;
3801;SDS011;1916;51.798;12.246;2022-12-29T01:40:46;4.83;;;2.80;;
3801;SDS011;1916;51.798;12.246;2022-12-29T01:42:48;2.67;;;2.47;;
3801;SDS011;1916;51.798;12.246;2022-12-29T01:44:52;2.50;;;2.30;;
3801;SDS011;1916;51.798;12.246;2022-12-29T01:46:56;2.90;;;2.30;;
3801;SDS011;1916;51.798;12.246;2022-12-29T01:51:00;2.90;;;2.20;;
3801;SDS011;1916;51.798;12.246;2022-12-29T01:53:10;3.13;;;2.83;;
3801;SDS011;1916;51.798;12.246;2022-12-29T01:55:15;2.00;;;1.80;;
3801;SDS011;1916;51.798;12.246;2022-12-29T01:57:21;2.27;;;2.10;;
3801;SDS011;1916;51.798;12.246;2022-12-29T01:59:28;3.00;;;2.30;;
3801;SDS011;1916;51.798;12.246;2022-12-29T02:01:32;2.50;;;2.13;;
3801;SDS011;1916;51.798;12.246;2022-12-29T02:03:35;2.97;;;2.30;;
3801;SDS011;1916;51.798;12.246;2022-12-29T02:05:40;2.83;;;2.40;;
3801;SDS011;1916;51.798;12.246;2022-12-29T02:07:47;2.93;;;2.10;;
3801;SDS011;1916;51.798;12.246;2022-12-29T02:09:50;3.07;;;2.23;;
3801;SDS011;1916;51.798;12.246;2022-12-29T02:11:53;2.47;;;2.27;;
3801;SDS011;1916;51.798;12.246;2022-12-29T02:13:55;2.83;;;2.33;;
3801;SDS011;1916;51.798;12.246;2022-12-29T02:23:36;2.63;;;2.13;;
3801;SDS011;1916;51.798;12.246;2022-12-29T02:28:34;2.97;;;2.50;;
3801;SDS011;1916;51.798;12.246;2022-12-29T02:36:08;2.60;;;2.30;;
3801;SDS011;1916;51.798;12.246;2022-12-29T02:40:35;3.23;;;2.87;;
3801;SDS011;1916;51.798;12.246;2022-12-29T02:44:58;4.20;;;2.67;;
3801;SDS011;1916;51.798;12.246;2022-12-29T02:47:56;3.53;;;2.63;;
3801;SDS011;1916;51.798;12.246;2022-12-29T02:51:54;3.80;;;2.37;;
3801;SDS011;1916;51.798;12.246;2022-12-29T02:53:58;2.43;;;2.20;;
3801;SDS011;1916;51.798;12.246;2022-12-29T02:56:21;2.77;;;2.50;;
3801;SDS011;1916;51.798;12.246;2022-12-29T02:58:23;3.60;;;2.17;;
3801;SDS011;1916;51.798;12.246;2022-12-29T03:00:25;3.37;;;2.20;;
3801;SDS011;1916;51.798;12.246;2022-12-29T03:07:04;2.93;;;2.40;;
3801;SDS011;1916;51.798;12.246;2022-12-29T03:09:19;2.97;;;2.17;;
3801;SDS011;1916;51.798;12.246;2022-12-29T03:11:30;2.20;;;2.10;;
3801;SDS011;1916;51.798;12.246;2022-12-29T03:13:56;2.23;;;2.03;;
3801;SDS011;1916;51.798;12.246;2022-12-29T03:16:34;2.47;;;2.27;;
3801;SDS011;1916;51.798;12.246;2022-12-29T03:18:46;2.20;;;2.00;;
3801;SDS011;1916;51.798;12.246;2022-12-29T03:20:51;3.23;;;2.13;;
3801;SDS011;1916;51.798;12.246;2022-12-29T03:22:58;2.30;;;2.10;;
3801;SDS011;1916;51.798;12.246;2022-12-29T03:25:08;2.80;;;2.30;;
3801;SDS011;1916;51.798;12.246;2022-12-29T03:27:13;2.30;;;2.10;;
3801;SDS011;1916;51.798;12.246;2022-12-29T03:29:19;2.53;;;2.33;;
3801;SDS011;1916;51.798;12.246;2022-12-29T03:31:23;2.60;;;2.40;;
3801;SDS011;1916;51.798;12.246;2022-12-29T03:33:27;2.80;;;2.20;;
3801;SDS011;1916;51.798;12.246;2022-12-29T03:35:34;2.53;;;2.20;;
3801;SDS011;1916;51.798;12.246;2022-12-29T03:37:51;3.20;;;2.67;;
3801;SDS011;1916;51.798;12.246;2022-12-29T03:40:01;2.60;;;2.33;;
3801;SDS011;1916;51.798;12.246;2022-12-29T03:42:09;2.30;;;2.10;;
3801;SDS011;1916;51.798;12.246;2022-12-29T03:44:15;3.00;;;2.50;;
3801;SDS011;1916;51.798;12.246;2022-12-29T03:46:17;3.83;;;2.37;;
3801;SDS011;1916;51.798;12.246;2022-12-29T03:48:20;3.00;;;2.10;;
3801;SDS011;1916;51.798;12.246;2022-12-29T03:50:24;2.90;;;2.60;;
3801;SDS011;1916;51.798;12.246;2022-12-29T03:52:26;3.07;;;2.13;;
3801;SDS011;1916;51.798;12.246;2022-12-29T03:54:29;3.40;;;2.50;;
3801;SDS011;1916;51.798;12.246;2022-12-29T03:56:32;3.20;;;2.30;;
3801;SDS011;1916;51.798;12.246;2022-12-29T03:58:35;4.10;;;2.37;;
3801;SDS011;1916;51.798;12.246;2022-12-29T04:00:42;3.60;;;2.23;;
3801;SDS011;1916;51.798;12.246;2022-12-29T04:02:44;5.73;;;2.40;;
3801;SDS011;1916;51.798;12.246;2022-12-29T04:04:52;3.90;;;2.10;;
3801;SDS011;1916;51.798;12.246;2022-12-29T04:06:54;2.60;;;2.40;;
3801;SDS011;1916;51.798;12.246;2022-12-29T04:08:56;7.20;;;2.30;;
3801;SDS011;1916;51.798;12.246;2022-12-29T04:10:58;3.63;;;2.00;;
3801;SDS011;1916;51.798;12.246;2022-12-29T04:13:01;2.00;;;1.80;;
3801;SDS011;1916;51.798;12.246;2022-12-29T04:15:03;2.20;;;2.10;;
3801;SDS011;1916;51.798;12.246;2022-12-29T04:17:07;2.27;;;2.07;;
3801;SDS011;1916;51.798;12.246;2022-12-29T04:19:09;2.73;;;2.00;;
3801;SDS011;1916;51.798;12.246;2022-12-29T04:21:11;2.53;;;2.20;;
3801;SDS011;1916;51.798;12.246;2022-12-29T04:23:15;2.60;;;2.40;;
3801;SDS011;1916;51.798;12.246;2022-12-29T04:25:19;3.17;;;2.30;;
3801;SDS011;1916;51.798;12.246;2022-12-29T04:27:21;3.33;;;2.40;;
3801;SDS011;1916;51.798;12.246;2022-12-29T04:29:45;2.70;;;2.00;;
3801;SDS011;1916;51.798;12.246;2022-12-29T04:32:05;3.60;;;2.20;;
3801;SDS011;1916;51.798;12.246;2022-12-29T04:34:12;2.40;;;2.20;;
3801;SDS011;1916;51.798;12.246;2022-12-29T04:36:15;2.00;;;1.90;;
3801;SDS011;1916;51.798;12.246;2022-12-29T04:38:19;2.40;;;2.20;;
3801;SDS011;1916;51.798;12.246;2022-12-29T04:40:22;4.37;;;2.07;;
3801;SDS011;1916;51.798;12.246;2022-12-29T04:42:26;2.20;;;2.00;;
3801;SDS011;1916;51.798;12.246;2022-12-29T04:44:28;2.37;;;2.27;;
3801;SDS011;1916;51.798;12.246;2022-12-29T04:46:43;3.00;;;2.10;;
3801;SDS011;1916;51.798;12.246;2022-12-29T04:49:11;2.57;;;2.37;;
3801;SDS011;1916;51.798;12.246;2022-12-29T04:51:33;2.33;;;2.10;;
3801;SDS011;1916;51.798;12.246;2022-12-29T04:53:36;2.53;;;2.20;;
3801;SDS011;1916;51.798;12.246;2022-12-29T04:55:38;2.43;;;2.23;;
3801;SDS011;1916;51.798;12.246;2022-12-29T04:57:41;2.30;;;2.10;;
3801;SDS011;1916;51.798;12.246;2022-12-29T04:59:45;2.27;;;2.07;;
3801;SDS011;1916;51.798;12.246;2022-12-29T05:01:48;2.47;;;2.27;;
3801;SDS011;1916;51.798;12.246;2022-12-29T05:03:51;1.90;;;1.80;;
3801;SDS011;1916;51.798;12.246;2022-12-29T05:05:54;1.97;;;1.80;;
3801;SDS011;1916;51.798;12.246;2022-12-29T05:07:56;2.30;;;2.10;;
3801;SDS011;1916;51.798;12.246;2022-12-29T05:09:59;3.37;;;2.23;;
3801;SDS011;1916;51.798;12.246;2022-12-29T05:12:01;2.57;;;2.20;;
3801;SDS011;1916;51.798;12.246;2022-12-29T05:14:04;3.00;;;2.50;;
3801;SDS011;1916;51.798;12.246;2022-12-29T05:16:07;2.70;;;2.13;;
3801;SDS011;1916;51.798;12.246;2022-12-29T05:18:09;2.10;;;1.90;;
3801;SDS011;1916;51.798;12.246;2022-12-29T05:20:11;2.30;;;2.10;;
3801;SDS011;1916;51.798;12.246;2022-12-29T05:22:13;2.47;;;1.97;;
3801;SDS011;1916;51.798;12.246;2022-12-29T05:24:20;3.33;;;2.00;;
3801;SDS011;1916;51.798;12.246;2022-12-29T05:26:22;4.73;;;3.13;;
3801;SDS011;1916;51.798;12.246;2022-12-29T05:28:30;2.20;;;2.00;;
3801;SDS011;1916;51.798;12.246;2022-12-29T05:30:39;2.30;;;2.10;;
3801;SDS011;1916;51.798;12.246;2022-12-29T05:32:41;2.30;;;2.10;;
3801;SDS011;1916;51.798;12.246;2022-12-29T05:34:43;3.13;;;2.13;;
3801;SDS011;1916;51.798;12.246;2022-12-29T05:36:45;2.30;;;2.10;;
3801;SDS011;1916;51.798;12.246;2022-12-29T05:38:48;1.80;;;1.67;;
3801;SDS011;1916;51.798;12.246;2022-12-29T05:40:51;3.10;;;1.93;;
3801;SDS011;1916;51.798;12.246;2022-12-29T05:43:16;2.20;;;2.00;;
3801;SDS011;1916;51.798;12.246;2022-12-29T05:45:42;3.90;;;3.60;;
3801;SDS011;1916;51.798;12.246;2022-12-29T05:48:01;2.20;;;2.00;;
3801;SDS011;1916;51.798;12.246;2022-12-29T05:50:27;2.90;;;2.20;;
3801;SDS011;1916;51.798;12.246;2022-12-29T05:52:48;2.53;;;2.33;;
3801;SDS011;1916;51.798;12.246;2022-12-29T05:54:50;2.13;;;1.93;;
3801;SDS011;1916;51.798;12.246;2022-12-29T05:56:55;2.70;;;2.17;;
3801;SDS011;1916;51.798;12.246;2022-12-29T05:58:58;2.07;;;1.97;;
3801;SDS011;1916;51.798;12.246;2022-12-29T06:01:00;1.80;;;1.70;;
3801;SDS011;1916;51.798;12.246;2022-12-29T06:03:02;2.43;;;2.03;;
3801;SDS011;1916;51.798;12.246;2022-12-29T06:05:04;1.87;;;1.77;;
3801;SDS011;1916;51.798;12.246;2022-12-29T06:07:08;1.87;;;1.77;;
3801;SDS011;1916;51.798;12.246;2022-12-29T06:09:15;3.00;;;2.03;;
3801;SDS011;1916;51.798;12.246;2022-12-29T06:11:18;3.00;;;2.30;;
3801;SDS011;1916;51.798;12.246;2022-12-29T06:13:26;2.60;;;2.40;;
3801;SDS011;1916;51.798;12.246;2022-12-29T06:15:31;2.40;;;2.10;;
3801;SDS011;1916;51.798;12.246;2022-12-29T06:17:33;1.97;;;1.77;;
3801;SDS011;1916;51.798;12.246;2022-12-29T06:19:35;2.00;;;1.90;;
3801;SDS011;1916;51.798;12.246;2022-12-29T06:21:37;2.00;;;1.90;;
3801;SDS011;1916;51.798;12.246;2022-12-29T06:23:40;2.40;;;2.07;;
3801;SDS011;1916;51.798;12.246;2022-12-29T06:25:42;1.70;;;1.60;;
3801;SDS011;1916;51.798;12.246;2022-12-29T06:27:44;2.23;;;2.07;;
3801;SDS011;1916;51.798;12.246;2022-12-29T06:29:46;2.20;;;2.00;;
3801;SDS011;1916;51.798;12.246;2022-12-29T06:31:48;1.80;;;1.70;;
3801;SDS011;1916;51.798;12.246;2022-12-29T06:33:51;2.40;;;2.17;;
3801;SDS011;1916;51.798;12.246;2022-12-29T06:35:53;2.30;;;2.17;;
3801;SDS011;1916;51.798;12.246;2022-12-29T06:37:55;2.93;;;2.17;;
3801;SDS011;1916;51.798;12.246;2022-12-29T06:39:57;2.70;;;2.20;;
3801;SDS011;1916;51.798;12.246;2022-12-29T06:42:05;2.67;;;2.40;;
3801;SDS011;1916;51.798;12.246;2022-12-29T06:44:13;2.23;;;2.03;;
3801;SDS011;1916;51.798;12.246;2022-12-29T06:46:27;3.47;;;2.23;;
3801;SDS011;1916;51.798;12.246;2022-12-29T06:48:29;2.93;;;1.70;;
3801;SDS011;1916;51.798;12.246;2022-12-29T06:50:31;3.50;;;2.40;;
3801;SDS011;1916;51.798;12.246;2022-12-29T06:52:33;2.93;;;2.07;;
3801;SDS011;1916;51.798;12.246;2022-12-29T06:54:35;2.10;;;1.90;;
3801;SDS011;1916;51.798;12.246;2022-12-29T06:56:37;2.00;;;1.90;;
3801;SDS011;1916;51.798;12.246;2022-12-29T06:58:39;2.93;;;2.17;;
3801;SDS011;1916;51.798;12.246;2022-12-29T07:00:41;2.30;;;2.10;;
3801;SDS011;1916;51.798;12.246;2022-12-29T07:02:43;2.33;;;2.10;;
3801;SDS011;1916;51.798;12.246;2022-12-29T07:04:45;1.90;;;1.80;;
3801;SDS011;1916;51.798;12.246;2022-12-29T07:06:47;1.80;;;1.70;;
3801;SDS011;1916;51.798;12.246;2022-12-29T07:08:50;10.10;;;2.50;;
3801;SDS011;1916;51.798;12.246;2022-12-29T07:10:52;4.60;;;2.00;;
3801;SDS011;1916;51.798;12.246;2022-12-29T07:12:54;2.00;;;1.80;;
3801;SDS011;1916;51.798;12.246;2022-12-29T07:14:56;3.10;;;1.80;;
3801;SDS011;1916;51.798;12.246;2022-12-29T07:16:58;2.20;;;2.00;;
3801;SDS011;1916;51.798;12.246;2022-12-29T07:19:00;2.70;;;1.80;;
3801;SDS011;1916;51.798;12.246;2022-12-29T07:21:02;2.20;;;2.00;;
3801;SDS011;1916;51.798;12.246;2022-12-29T07:23:04;2.17;;;1.80;;
3801;SDS011;1916;51.798;12.246;2022-12-29T07:25:06;4.00;;;2.23;;
3801;SDS011;1916;51.798;12.246;2022-12-29T07:27:09;2.10;;;1.90;;
3801;SDS011;1916;51.798;12.246;2022-12-29T07:29:11;2.80;;;2.10;;
3801;SDS011;1916;51.798;12.246;2022-12-29T07:31:16;2.53;;;2.33;;
3801;SDS011;1916;51.798;12.246;2022-12-29T07:33:20;3.40;;;2.17;;
3801;SDS011;1916;51.798;12.246;2022-12-29T07:35:22;2.23;;;1.70;;
3801;SDS011;1916;51.798;12.246;2022-12-29T07:37:24;2.30;;;2.10;;
3801;SDS011;1916;51.798;12.246;2022-12-29T07:39:26;2.20;;;2.00;;
3801;SDS011;1916;51.798;12.246;2022-12-29T07:41:28;3.20;;;2.70;;
3801;SDS011;1916;51.798;12.246;2022-12-29T07:43:30;2.57;;;2.37;;
3801;SDS011;1916;51.798;12.246;2022-12-29T07:45:52;2.47;;;2.27;;
3801;SDS011;1916;51.798;12.246;2022-12-29T07:47:57;5.70;;;1.97;;
3801;SDS011;1916;51.798;12.246;2022-12-29T07:49:59;2.47;;;2.27;;
3801;SDS011;1916;51.798;12.246;2022-12-29T07:52:01;3.00;;;2.40;;
3801;SDS011;1916;51.798;12.246;2022-12-29T07:54:03;2.10;;;2.00;;
3801;SDS011;1916;51.798;12.246;2022-12-29T07:56:05;1.90;;;1.80;;
3801;SDS011;1916;51.798;12.246;2022-12-29T07:58:07;2.33;;;2.13;;
3801;SDS011;1916;51.798;12.246;2022-12-29T08:00:10;3.60;;;1.83;;
3801;SDS011;1916;51.798;12.246;2022-12-29T08:02:12;3.60;;;2.70;;
3801;SDS011;1916;51.798;12.246;2022-12-29T08:04:14;2.60;;;1.83;;
3801;SDS011;1916;51.798;12.246;2022-12-29T08:06:16;3.87;;;2.50;;
3801;SDS011;1916;51.798;12.246;2022-12-29T08:08:20;3.10;;;2.00;;
3801;SDS011;1916;51.798;12.246;2022-12-29T08:10:22;3.57;;;2.00;;
3801;SDS011;1916;51.798;12.246;2022-12-29T08:12:24;4.70;;;2.37;;
3801;SDS011;1916;51.798;12.246;2022-12-29T08:14:27;2.90;;;2.70;;
3801;SDS011;1916;51.798;12.246;2022-12-29T08:16:29;3.93;;;2.63;;
3801;SDS011;1916;51.798;12.246;2022-12-29T08:18:31;2.20;;;2.00;;
3801;SDS011;1916;51.798;12.246;2022-12-29T08:20:33;3.70;;;2.63;;
3801;SDS011;1916;51.798;12.246;2022-12-29T08:22:35;3.37;;;2.30;;
3801;SDS011;1916;51.798;12.246;2022-12-29T08:24:38;2.40;;;2.17;;
3801;SDS011;1916;51.798;12.246;2022-12-29T08:26:40;4.50;;;2.07;;
3801;SDS011;1916;51.798;12.246;2022-12-29T08:28:42;2.47;;;2.17;;
3801;SDS011;1916;51.798;12.246;2022-12-29T08:30:44;1.90;;;1.70;;
3801;SDS011;1916;51.798;12.246;2022-12-29T08:32:46;2.10;;;1.90;;
3801;SDS011;1916;51.798;12.246;2022-12-29T08:34:48;2.87;;;1.87;;
3801;SDS011;1916;51.798;12.246;2022-12-29T08:36:50;1.70;;;1.60;;
3801;SDS011;1916;51.798;12.246;2022-12-29T08:38:52;1.97;;;1.87;;
3801;SDS011;1916;51.798;12.246;2022-12-29T08:40:54;2.13;;;1.50;;
3801;SDS011;1916;51.798;12.246;2022-12-29T08:42:57;2.47;;;1.73;;
3801;SDS011;1916;51.798;12.246;2022-12-29T08:44:59;3.10;;;1.83;;
3801;SDS011;1916;51.798;12.246;2022-12-29T08:47:01;3.00;;;2.00;;
3801;SDS011;1916;51.798;12.246;2022-12-29T08:49:03;2.27;;;1.83;;
3801;SDS011;1916;51.798;12.246;2022-12-29T08:51:05;1.67;;;1.50;;
3801;SDS011;1916;51.798;12.246;2022-12-29T08:53:07;1.43;;;1.33;;
3801;SDS011;1916;51.798;12.246;2022-12-29T08:55:10;2.13;;;1.83;;
3801;SDS011;1916;51.798;12.246;2022-12-29T08:57:12;3.20;;;1.80;;
3801;SDS011;1916;51.798;12.246;2022-12-29T08:59:25;3.03;;;1.93;;
3801;SDS011;1916;51.798;12.246;2022-12-29T09:01:27;2.40;;;1.63;;
3801;SDS011;1916;51.798;12.246;2022-12-29T09:03:30;3.07;;;2.00;;
3801;SDS011;1916;51.798;12.246;2022-12-29T09:05:52;2.57;;;1.73;;
3801;SDS011;1916;51.798;12.246;2022-12-29T09:07:55;2.33;;;2.00;;
3801;SDS011;1916;51.798;12.246;2022-12-29T09:09:57;2.00;;;1.90;;
3801;SDS011;1916;51.798;12.246;2022-12-29T09:11:59;2.20;;;1.87;;
3801;SDS011;1916;51.798;12.246;2022-12-29T09:14:01;3.60;;;2.50;;
3801;SDS011;1916;51.798;12.246;2022-12-29T09:16:04;2.83;;;2.37;;
3801;SDS011;1916;51.798;12.246;2022-12-29T09:18:07;4.03;;;2.30;;
3801;SDS011;1916;51.798;12.246;2022-12-29T09:20:10;3.33;;;2.90;;
3801;SDS011;1916;51.798;12.246;2022-12-29T09:22:17;3.23;;;2.17;;
3801;SDS011;1916;51.798;12.246;2022-12-29T09:24:18;1.93;;;1.70;;
3801;SDS011;1916;51.798;12.246;2022-12-29T09:26:20;3.53;;;1.93;;
3801;SDS011;1916;51.798;12.246;2022-12-29T09:28:23;2.10;;;1.83;;
3801;SDS011;1916;51.798;12.246;2022-12-29T09:30:25;2.97;;;2.20;;
3801;SDS011;1916;51.798;12.246;2022-12-29T09:32:27;2.13;;;1.67;;
3801;SDS011;1916;51.798;12.246;2022-12-29T09:34:34;1.50;;;1.40;;
3801;SDS011;1916;51.798;12.246;2022-12-29T09:36:36;2.77;;;1.77;;
3801;SDS011;1916;51.798;12.246;2022-12-29T09:38:38;1.80;;;1.70;;
3801;SDS011;1916;51.798;12.246;2022-12-29T09:40:40;2.20;;;1.80;;
3801;SDS011;1916;51.798;12.246;2022-12-29T09:42:49;1.90;;;1.67;;
3801;SDS011;1916;51.798;12.246;2022-12-29T09:47:30;2.60;;;1.87;;
3801;SDS011;1916;51.798;12.246;2022-12-29T09:51:36;1.53;;;1.30;;
3801;SDS011;1916;51.798;12.246;2022-12-29T09:53:43;3.93;;;1.90;;
3801;SDS011;1916;51.798;12.246;2022-12-29T09:55:48;2.37;;;1.63;;
3801;SDS011;1916;51.798;12.246;2022-12-29T09:58:05;2.60;;;1.70;;
3801;SDS011;1916;51.798;12.246;2022-12-29T10:00:16;3.27;;;1.80;;
3801;SDS011;1916;51.798;12.246;2022-12-29T10:04:35;1.63;;;1.50;;
3801;SDS011;1916;51.798;12.246;2022-12-29T10:11:23;2.77;;;1.50;;
3801;SDS011;1916;51.798;12.246;2022-12-29T10:16:20;2.67;;;1.50;;
3801;SDS011;1916;51.798;12.246;2022-12-29T10:18:41;1.50;;;1.40;;
3801;SDS011;1916;51.798;12.246;2022-12-29T10:25:18;2.80;;;1.80;;
3801;SDS011;1916;51.798;12.246;2022-12-29T10:27:21;2.00;;;1.80;;
3801;SDS011;1916;51.798;12.246;2022-12-29T10:29:32;2.47;;;1.80;;
3801;SDS011;1916;51.798;12.246;2022-12-29T10:31:37;6.03;;;1.87;;
3801;SDS011;1916;51.798;12.246;2022-12-29T10:33:42;1.70;;;1.60;;
3801;SDS011;1916;51.798;12.246;2022-12-29T10:35:44;1.63;;;1.53;;
3801;SDS011;1916;51.798;12.246;2022-12-29T10:37:49;1.50;;;1.40;;
3801;SDS011;1916;51.798;12.246;2022-12-29T10:39:57;3.43;;;1.40;;
3801;SDS011;1916;51.798;12.246;2022-12-29T10:42:43;2.30;;;1.40;;
3801;SDS011;1916;51.798;12.246;2022-12-29T10:44:29;2.83;;;1.60;;
3801;SDS011;1916;51.798;12.246;2022-12-29T10:46:33;1.73;;;1.60;;
3801;SDS011;1916;51.798;12.246;2022-12-29T10:48:38;4.50;;;1.30;;
3801;SDS011;1916;51.798;12.246;2022-12-29T10:50:40;2.13;;;1.67;;
3801;SDS011;1916;51.798;12.246;2022-12-29T10:52:44;1.60;;;1.50;;
3801;SDS011;1916;51.798;12.246;2022-12-29T11:01:23;2.40;;;1.63;;
3801;SDS011;1916;51.798;12.246;2022-12-29T11:07:57;1.50;;;1.20;;
3801;SDS011;1916;51.798;12.246;2022-12-29T11:10:21;1.67;;;1.57;;
3801;SDS011;1916;51.798;12.246;2022-12-29T11:12:32;2.40;;;1.37;;
3801;SDS011;1916;51.798;12.246;2022-12-29T11:14:34;4.40;;;1.67;;
3801;SDS011;1916;51.798;12.246;2022-12-29T11:16:37;1.50;;;1.40;;
3801;SDS011;1916;51.798;12.246;2022-12-29T11:18:39;6.40;;;1.70;;
3801;SDS011;1916;51.798;12.246;2022-12-29T11:20:43;1.20;;;1.10;;
3801;SDS011;1916;51.798;12.246;2022-12-29T11:22:46;2.87;;;1.50;;
3801;SDS011;1916;51.798;12.246;2022-12-29T11:24:48;2.63;;;1.77;;
3801;SDS011;1916;51.798;12.246;2022-12-29T11:26:54;1.30;;;1.20;;
3801;SDS011;1916;51.798;12.246;2022-12-29T11:31:17;1.73;;;1.20;;
3801;SDS011;1916;51.798;12.246;2022-12-29T11:33:20;2.50;;;1.30;;
3801;SDS011;1916;51.798;12.246;2022-12-29T11:37:38;1.77;;;1.37;;
3801;SDS011;1916;51.798;12.246;2022-12-29T11:39:45;1.57;;;1.33;;
3801;SDS011;1916;51.798;12.246;2022-12-29T11:41:52;2.27;;;1.57;;
3801;SDS011;1916;51.798;12.246;2022-12-29T11:43:55;1.83;;;1.40;;
3801;SDS011;1916;51.798;12.246;2022-12-29T11:46:01;2.97;;;1.30;;
3801;SDS011;1916;51.798;12.246;2022-12-29T11:48:07;1.63;;;1.30;;
3801;SDS011;1916;51.798;12.246;2022-12-29T11:50:33;4.40;;;1.60;;
3801;SDS011;1916;51.798;12.246;2022-12-29T11:52:37;1.83;;;1.50;;
3801;SDS011;1916;51.798;12.246;2022-12-29T11:54:41;5.30;;;1.50;;
3801;SDS011;1916;51.798;12.246;2022-12-29T11:56:44;2.13;;;1.40;;
3801;SDS011;1916;51.798;12.246;2022-12-29T11:58:47;3.03;;;1.67;;
3801;SDS011;1916;51.798;12.246;2022-12-29T12:00:51;2.23;;;1.80;;
3801;SDS011;1916;51.798;12.246;2022-12-29T12:04:59;2.57;;;1.20;;
3801;SDS011;1916;51.798;12.246;2022-12-29T12:07:12;2.87;;;1.80;;
3801;SDS011;1916;51.798;12.246;2022-12-29T12:09:19;1.80;;;1.60;;
3801;SDS011;1916;51.798;12.246;2022-12-29T12:11:30;1.70;;;1.60;;
3801;SDS011;1916;51.798;12.246;2022-12-29T12:15:59;1.90;;;1.40;;
3801;SDS011;1916;51.798;12.246;2022-12-29T12:18:10;4.83;;;1.37;;
3801;SDS011;1916;51.798;12.246;2022-12-29T12:22:29;4.77;;;1.73;;
3801;SDS011;1916;51.798;12.246;2022-12-29T12:24:48;3.57;;;1.53;;
3801;SDS011;1916;51.798;12.246;2022-12-29T12:28:58;4.30;;;1.97;;
3801;SDS011;1916;51.798;12.246;2022-12-29T12:31:01;3.90;;;1.43;;
3801;SDS011;1916;51.798;12.246;2022-12-29T12:40:15;1.77;;;1.40;;
3801;SDS011;1916;51.798;12.246;2022-12-29T12:42:25;2.70;;;1.50;;
3801;SDS011;1916;51.798;12.246;2022-12-29T12:47:25;1.53;;;1.40;;
3801;SDS011;1916;51.798;12.246;2022-12-29T12:52:00;3.60;;;1.57;;
3801;SDS011;1916;51.798;12.246;2022-12-29T12:54:13;2.07;;;1.53;;
3801;SDS011;1916;51.798;12.246;2022-12-29T12:57:00;1.83;;;1.50;;
3801;SDS011;1916;51.798;12.246;2022-12-29T13:03:23;2.50;;;1.40;;
3801;SDS011;1916;51.798;12.246;2022-12-29T13:11:04;2.10;;;1.30;;
3801;SDS011;1916;51.798;12.246;2022-12-29T13:13:41;2.30;;;1.43;;
3801;SDS011;1916;51.798;12.246;2022-12-29T13:23:08;1.57;;;1.47;;
3801;SDS011;1916;51.798;12.246;2022-12-29T13:25:34;2.40;;;1.43;;
3801;SDS011;1916;51.798;12.246;2022-12-29T13:27:56;1.30;;;1.20;;
3801;SDS011;1916;51.798;12.246;2022-12-29T13:30:16;2.10;;;1.90;;
3801;SDS011;1916;51.798;12.246;2022-12-29T13:34:41;4.63;;;2.80;;
3801;SDS011;1916;51.798;12.246;2022-12-29T13:36:58;2.83;;;1.83;;
3801;SDS011;1916;51.798;12.246;2022-12-29T13:39:04;2.67;;;1.83;;
3801;SDS011;1916;51.798;12.246;2022-12-29T13:41:14;4.97;;;1.47;;
3801;SDS011;1916;51.798;12.246;2022-12-29T13:43:20;2.87;;;1.90;;
3801;SDS011;1916;51.798;12.246;2022-12-29T13:45:24;3.10;;;1.93;;
3801;SDS011;1916;51.798;12.246;2022-12-29T13:47:30;1.50;;;1.40;;
3801;SDS011;1916;51.798;12.246;2022-12-29T13:49:35;4.97;;;1.70;;
3801;SDS011;1916;51.798;12.246;2022-12-29T13:51:37;2.70;;;1.60;;
3801;SDS011;1916;51.798;12.246;2022-12-29T13:56:06;2.07;;;1.87;;
3801;SDS011;1916;51.798;12.246;2022-12-29T14:00:43;2.70;;;1.57;;
3801;SDS011;1916;51.798;12.246;2022-12-29T14:05:31;2.43;;;1.63;;
3801;SDS011;1916;51.798;12.246;2022-12-29T14:07:37;5.20;;;1.77;;
3801;SDS011;1916;51.798;12.246;2022-12-29T14:09:58;1.70;;;1.47;;
3801;SDS011;1916;51.798;12.246;2022-12-29T14:12:00;2.63;;;2.43;;
3801;SDS011;1916;51.798;12.246;2022-12-29T14:14:36;2.27;;;1.50;;
3801;SDS011;1916;51.798;12.246;2022-12-29T14:16:31;1.60;;;1.50;;
3801;SDS011;1916;51.798;12.246;2022-12-29T14:18:41;1.73;;;1.60;;
3801;SDS011;1916;51.798;12.246;2022-12-29T14:22:59;3.50;;;1.80;;
3801;SDS011;1916;51.798;12.246;2022-12-29T14:25:03;3.20;;;1.60;;
3801;SDS011;1916;51.798;12.246;2022-12-29T14:33:31;1.77;;;1.57;;
3801;SDS011;1916;51.798;12.246;2022-12-29T14:35:39;2.00;;;1.67;;
3801;SDS011;1916;51.798;12.246;2022-12-29T14:37:45;2.17;;;1.57;;
3801;SDS011;1916;51.798;12.246;2022-12-29T14:39:47;1.83;;;1.73;;
3801;SDS011;1916;51.798;12.246;2022-12-29T14:41:58;2.70;;;1.90;;
3801;SDS011;1916;51.798;12.246;2022-12-29T14:46:09;1.60;;;1.50;;
3801;SDS011;1916;51.798;12.246;2022-12-29T14:50:37;2.40;;;2.00;;
3801;SDS011;1916;51.798;12.246;2022-12-29T14:57:26;2.10;;;1.77;;
3801;SDS011;1916;51.798;12.246;2022-12-29T14:59:32;2.10;;;1.93;;
3801;SDS011;1916;51.798;12.246;2022-12-29T15:01:47;2.00;;;1.80;;